createdAt,value
2022-08-18T00:01:40.617Z,13.43
2022-08-18T00:04:16.940Z,13.30
2022-08-18T00:06:56.540Z,12.30
2022-08-18T00:09:23.194Z,14.55
2022-08-18T00:11:50.047Z,15.43
2022-08-18T00:14:22.675Z,12.25
2022-08-18T00:16:52.857Z,16.08
2022-08-18T00:19:20.309Z,14.32
2022-08-18T00:22:07.595Z,14.25
2022-08-18T00:24:34.937Z,12.70
2022-08-18T00:27:02.014Z,14.85
2022-08-18T00:29:28.741Z,12.57
2022-08-18T00:31:55.395Z,14.32
2022-08-18T00:34:22.082Z,16.30
2022-08-18T00:36:50.091Z,17.77
2022-08-18T00:39:17.044Z,18.17
2022-08-18T00:41:43.666Z,20.23
2022-08-18T00:44:11.118Z,20.15
2022-08-18T00:46:38.116Z,20.63
2022-08-18T00:49:05.882Z,20.98
2022-08-18T00:51:44.747Z,23.98
2022-08-18T00:54:27.219Z,22.83
2022-08-18T00:59:29.326Z,24.17
2022-08-18T01:02:02.641Z,24.90
2022-08-18T01:04:38.491Z,23.08
2022-08-18T01:07:18.071Z,25.27
2022-08-18T01:09:44.737Z,24.83
2022-08-18T01:12:13.011Z,27.08
2022-08-18T01:14:58.589Z,30.98
2022-08-18T01:17:45.743Z,30.67
2022-08-18T01:20:37.633Z,32.08
2022-08-18T01:23:09.742Z,28.73
2022-08-18T01:25:56.914Z,28.85
2022-08-18T01:28:23.811Z,32.22
2022-08-18T01:30:53.163Z,29.65
2022-08-18T01:33:19.861Z,29.55
2022-08-18T01:35:49.434Z,30.33
2022-08-18T01:38:19.014Z,25.83
2022-08-18T01:41:24.380Z,28.00
2022-08-18T01:43:35.997Z,27.20
2022-08-18T01:46:04.246Z,31.50
2022-08-18T01:48:34.586Z,30.35
2022-08-18T01:51:04.236Z,33.22
2022-08-18T01:53:31.339Z,32.17
2022-08-18T01:55:58.009Z,29.45
2022-08-18T01:58:31.449Z,28.52
2022-08-18T02:01:01.818Z,30.45
2022-08-18T02:03:42.697Z,34.85
2022-08-18T02:06:12.009Z,32.45
2022-08-18T02:08:43.710Z,33.25
2022-08-18T02:11:13.321Z,37.25
2022-08-18T02:13:40.423Z,35.50
2022-08-18T02:16:07.640Z,37.28
2022-08-18T02:18:46.930Z,34.15
2022-08-18T02:21:19.272Z,33.72
2022-08-18T02:23:53.703Z,32.85
2022-08-18T02:26:21.360Z,33.10
2022-08-18T02:28:48.020Z,34.97
2022-08-18T02:31:17.752Z,34.03
2022-08-18T02:33:51.638Z,36.10
2022-08-18T02:36:20.601Z,32.10
2022-08-18T02:38:54.805Z,31.02
2022-08-18T02:41:29.401Z,32.53
2022-08-18T02:43:57.404Z,35.25
2022-08-18T02:46:24.957Z,34.00
2022-08-18T02:48:57.246Z,34.67
2022-08-18T02:51:25.668Z,36.92
2022-08-18T02:53:53.881Z,33.83
2022-08-18T02:56:40.704Z,33.33
2022-08-18T02:59:12.304Z,36.38
2022-08-18T03:01:42.327Z,36.30
2022-08-18T03:04:11.566Z,34.75
2022-08-18T03:06:39.201Z,32.13
2022-08-18T03:09:07.854Z,32.72
2022-08-18T03:11:34.998Z,32.88
2022-08-18T03:14:02.226Z,30.95
2022-08-18T03:16:32.755Z,31.55
2022-08-18T03:19:01.032Z,27.02
2022-08-18T03:21:29.909Z,30.63
2022-08-18T03:24:01.380Z,27.25
2022-08-18T03:26:31.440Z,28.05
2022-08-18T03:28:59.959Z,26.95
2022-08-18T03:31:28.577Z,28.15
2022-08-18T03:33:59.133Z,27.02
2022-08-18T03:36:31.746Z,24.42
2022-08-18T03:39:01.616Z,26.30
2022-08-18T03:41:43.782Z,24.02
2022-08-18T03:44:15.861Z,26.65
2022-08-18T03:46:44.483Z,26.27
2022-08-18T03:49:12.180Z,23.90
2022-08-18T03:51:40.906Z,28.73
2022-08-18T03:54:07.606Z,26.38
2022-08-18T03:56:38.226Z,25.33
2022-08-18T03:59:23.469Z,27.08
2022-08-18T04:01:53.951Z,26.95
2022-08-18T04:04:26.965Z,25.75
2022-08-18T04:06:59.924Z,26.35
2022-08-18T04:09:29.592Z,27.30
2022-08-18T04:11:57.576Z,29.20
2022-08-18T04:14:30.454Z,30.08
2022-08-18T04:16:58.194Z,28.20
2022-08-18T04:19:26.744Z,25.23
2022-08-18T04:21:56.143Z,27.75
2022-08-18T04:24:23.172Z,28.80
2022-08-18T04:26:50.113Z,29.98
2022-08-18T04:29:19.597Z,30.33
2022-08-18T04:31:46.642Z,28.73
2022-08-18T04:34:13.772Z,28.83
2022-08-18T04:36:41.696Z,28.80
2022-08-18T04:39:11.135Z,30.15
2022-08-18T04:41:39.467Z,29.52
2022-08-18T04:44:08.677Z,29.42
2022-08-18T04:46:39.997Z,29.60
2022-08-18T04:49:09.086Z,31.98
2022-08-18T04:52:34.863Z,31.25
2022-08-18T04:54:25.058Z,27.17
2022-08-18T04:56:51.954Z,30.75
2022-08-18T04:59:19.030Z,33.63
2022-08-18T05:01:48.070Z,30.92
2022-08-18T05:04:17.106Z,29.35
2022-08-18T05:06:45.049Z,31.27
2022-08-18T05:09:16.880Z,31.42
2022-08-18T05:11:50.579Z,33.13
2022-08-18T05:14:17.954Z,31.08
2022-08-18T05:16:48.482Z,30.90
2022-08-18T05:19:21.851Z,31.05
2022-08-18T05:21:52.325Z,30.77
2022-08-18T05:24:21.421Z,30.55
2022-08-18T05:26:48.939Z,32.92
2022-08-18T05:29:18.937Z,31.77
2022-08-18T05:31:46.239Z,31.45
2022-08-18T05:34:12.980Z,30.88
2022-08-18T05:36:48.411Z,30.52
2022-08-18T05:39:23.564Z,30.73
2022-08-18T05:41:52.183Z,29.90
2022-08-18T05:44:28.524Z,30.67
2022-08-18T05:47:00.077Z,30.05
2022-08-18T05:49:27.900Z,31.35
2022-08-18T05:52:06.060Z,30.38
2022-08-18T05:55:03.843Z,30.90
2022-08-18T05:57:42.015Z,28.65
2022-08-18T06:00:11.430Z,33.78
2022-08-18T06:02:47.219Z,32.63
2022-08-18T06:05:26.707Z,32.72
2022-08-18T06:08:15.431Z,28.42
2022-08-18T06:10:46.347Z,32.03
2022-08-18T06:13:13.810Z,31.27
2022-08-18T06:15:53.194Z,33.67
2022-08-18T06:18:33.726Z,35.25
2022-08-18T06:21:00.326Z,30.73
2022-08-18T06:23:47.453Z,36.05
2022-08-18T06:26:20.765Z,35.50
2022-08-18T06:29:00.795Z,35.38
2022-08-18T06:31:45.628Z,36.92
2022-08-18T06:34:42.239Z,36.90
2022-08-18T06:37:19.975Z,41.20
2022-08-18T06:39:52.243Z,51.70
2022-08-18T06:44:52.871Z,47.90
2022-08-18T06:47:45.378Z,51.70
2022-08-18T06:50:25.964Z,49.25
2022-08-18T06:53:05.308Z,49.80
2022-08-18T06:55:41.055Z,45.42
2022-08-18T06:58:17.180Z,44.95
2022-08-18T07:00:55.153Z,44.72
2022-08-18T07:03:42.295Z,47.75
2022-08-18T07:06:20.618Z,47.58
2022-08-18T07:08:49.439Z,46.92
2022-08-18T07:11:24.457Z,42.78
2022-08-18T07:14:09.532Z,48.67
2022-08-18T07:16:57.708Z,53.10
2022-08-18T07:19:29.729Z,51.75
2022-08-18T07:22:08.226Z,48.35
2022-08-18T07:24:46.674Z,46.90
2022-08-18T07:27:39.621Z,47.70
2022-08-18T07:30:25.221Z,46.72
2022-08-18T07:33:13.153Z,46.90
2022-08-18T07:35:51.401Z,48.72
2022-08-18T07:38:43.458Z,48.53
2022-08-18T07:41:22.692Z,48.10
2022-08-18T07:43:52.534Z,44.25
2022-08-18T07:46:45.154Z,40.45
2022-08-18T07:52:04.384Z,39.63
2022-08-18T07:54:56.074Z,39.20
2022-08-18T07:58:00.290Z,40.90
2022-08-18T08:01:00.605Z,39.80
2022-08-18T08:03:42.303Z,40.60
2022-08-18T08:06:31.364Z,36.73
2022-08-18T08:09:29.857Z,39.50
2022-08-18T08:11:58.536Z,40.78
2022-08-18T08:14:36.880Z,37.47
2022-08-18T08:17:42.887Z,36.38
2022-08-18T08:20:22.576Z,33.88
2022-08-18T08:23:04.744Z,33.63
2022-08-18T08:25:50.694Z,36.08
2022-08-18T08:28:26.519Z,38.10
2022-08-18T08:31:33.374Z,32.40
2022-08-18T08:34:22.450Z,36.65
2022-08-18T08:36:53.771Z,33.85
2022-08-18T08:39:36.303Z,38.10
2022-08-18T08:42:37.453Z,37.67
2022-08-18T08:45:21.001Z,33.60
2022-08-18T08:48:17.711Z,30.58
2022-08-18T08:50:55.538Z,34.80
2022-08-18T08:53:29.099Z,35.15
2022-08-18T08:56:02.539Z,31.75
2022-08-18T08:58:52.596Z,31.67
2022-08-18T09:01:55.920Z,33.60
2022-08-18T09:05:08.048Z,31.20
2022-08-18T09:07:50.538Z,30.63
2022-08-18T09:10:42.928Z,32.60
2022-08-18T09:13:41.771Z,30.40
2022-08-18T09:16:38.775Z,30.95
2022-08-18T09:19:31.697Z,26.88
2022-08-18T09:22:05.314Z,31.42
2022-08-18T09:24:45.728Z,27.95
2022-08-18T09:28:09.414Z,25.95
2022-08-18T09:33:44.004Z,27.15
2022-08-18T09:39:24.916Z,21.75
2022-08-18T09:41:58.401Z,25.38
2022-08-18T09:44:42.834Z,25.08
2022-08-18T09:47:10.153Z,22.67
2022-08-18T09:49:51.337Z,23.08
2022-08-18T09:52:37.330Z,20.95
2022-08-18T09:55:27.311Z,20.42
2022-08-18T09:58:34.964Z,18.55
2022-08-18T10:01:31.921Z,19.90
2022-08-18T10:04:14.026Z,16.50
2022-08-18T10:06:48.316Z,18.10
2022-08-18T10:09:36.699Z,19.77
2022-08-18T10:15:33.124Z,19.35
2022-08-18T10:18:06.579Z,17.75
2022-08-18T10:21:03.476Z,20.33
2022-08-18T10:26:38.229Z,16.95
2022-08-18T10:29:24.719Z,14.98
2022-08-18T10:31:58.514Z,18.90
2022-08-18T10:34:28.054Z,16.30
2022-08-18T10:37:01.662Z,13.80
2022-08-18T10:42:34.600Z,14.18
2022-08-18T10:45:36.473Z,13.85
2022-08-18T10:48:30.340Z,12.73
2022-08-18T10:51:21.424Z,11.88
2022-08-18T10:53:58.505Z,12.88
2022-08-18T10:56:49.797Z,12.90
2022-08-18T11:03:01.976Z,11.32
2022-08-18T11:08:20.357Z,11.27
2022-08-18T11:11:32.801Z,10.27
2022-08-18T11:13:47.032Z,10.95
2022-08-18T11:16:39.452Z,12.82
2022-08-18T11:19:14.310Z,14.65
2022-08-18T11:21:51.561Z,12.85
2022-08-18T11:24:24.792Z,11.15
2022-08-18T11:26:56.392Z,10.50
2022-08-18T11:29:37.002Z,11.63
2022-08-18T11:32:12.083Z,13.05
2022-08-18T11:34:52.899Z,11.90
2022-08-18T11:37:51.600Z,9.95
2022-08-18T11:43:23.869Z,11.10
2022-08-18T11:45:55.144Z,12.63
2022-08-18T11:48:39.054Z,11.57
2022-08-18T11:54:12.926Z,11.65
2022-08-18T11:56:39.805Z,10.82
2022-08-18T11:59:53.749Z,12.85
2022-08-18T12:02:21.126Z,9.48
2022-08-18T12:04:52.873Z,9.50
2022-08-18T12:07:42.128Z,10.48
2022-08-18T12:13:23.791Z,10.95
2022-08-18T12:16:13.006Z,13.50
2022-08-18T12:18:39.745Z,10.02
2022-08-18T12:21:10.134Z,11.88
2022-08-18T12:23:44.732Z,12.48
2022-08-18T12:29:03.190Z,9.27
2022-08-18T12:31:42.317Z,11.55
2022-08-18T12:34:14.958Z,12.52
2022-08-18T12:36:42.486Z,14.48
2022-08-18T12:39:10.418Z,14.73
2022-08-18T12:41:37.758Z,14.55
2022-08-18T12:44:04.838Z,11.35
2022-08-18T12:46:42.880Z,12.25
2022-08-18T12:49:17.275Z,10.55
2022-08-18T12:51:44.710Z,12.70
2022-08-18T12:54:12.601Z,10.63
2022-08-18T12:56:41.323Z,13.18
2022-08-18T12:59:09.974Z,14.00
2022-08-18T13:01:39.692Z,11.73
2022-08-18T13:04:12.708Z,12.70
2022-08-18T13:07:01.301Z,11.93
2022-08-18T13:09:35.112Z,12.65
2022-08-18T13:12:16.163Z,12.07
2022-08-18T13:14:43.752Z,12.65
2022-08-18T13:17:29.142Z,13.90
2022-08-18T13:19:59.483Z,11.38
2022-08-18T13:22:32.368Z,12.80
2022-08-18T13:25:01.587Z,9.23
2022-08-18T13:27:32.841Z,11.15
2022-08-18T13:30:30.370Z,11.63
2022-08-18T13:33:00.633Z,11.13
2022-08-18T13:35:30.000Z,10.38
2022-08-18T13:38:15.711Z,9.00
2022-08-18T13:43:20.947Z,9.93
2022-08-18T13:45:53.181Z,11.32
2022-08-18T13:48:23.829Z,9.82
2022-08-18T13:50:52.996Z,9.65
2022-08-18T13:53:21.144Z,7.55
2022-08-18T13:55:48.473Z,8.27
2022-08-18T13:58:20.394Z,8.27
2022-08-18T14:03:30.804Z,8.82
2022-08-18T14:06:06.202Z,7.35
2022-08-18T14:08:34.765Z,7.20
2022-08-18T14:11:03.422Z,7.57
2022-08-18T14:13:38.319Z,8.18
2022-08-18T14:16:10.999Z,7.68
2022-08-18T14:18:43.044Z,6.53
2022-08-18T14:21:30.936Z,5.25
2022-08-18T14:24:16.553Z,6.78
2022-08-18T14:26:50.895Z,5.60
2022-08-18T14:29:46.428Z,5.18
2022-08-18T14:32:06.862Z,5.28
2022-08-18T14:34:33.582Z,6.82
2022-08-18T14:37:00.217Z,6.90
2022-08-18T14:39:27.523Z,5.47
2022-08-18T14:41:55.741Z,5.20
2022-08-18T14:44:24.353Z,4.95
2022-08-18T14:46:54.230Z,5.70
2022-08-18T14:49:28.719Z,5.90
2022-08-18T14:51:57.770Z,4.35
2022-08-18T14:54:28.767Z,6.57
2022-08-18T14:56:57.334Z,5.88
2022-08-18T14:59:25.040Z,5.47
2022-08-18T15:01:52.369Z,6.18
2022-08-18T15:04:20.701Z,5.93
2022-08-18T15:06:56.076Z,4.70
2022-08-18T15:09:26.832Z,3.53
2022-08-18T15:11:55.848Z,6.72
2022-08-18T15:14:32.783Z,5.55
2022-08-18T15:17:12.016Z,5.20
2022-08-18T15:20:00.207Z,6.90
2022-08-18T15:22:46.099Z,4.90
2022-08-18T15:25:33.737Z,6.15
2022-08-18T15:28:01.001Z,5.30
2022-08-18T15:30:28.323Z,6.70
2022-08-18T15:32:55.344Z,6.20
2022-08-18T15:35:22.226Z,5.35
2022-08-18T15:37:51.040Z,6.00
2022-08-18T15:40:31.033Z,6.00
2022-08-18T15:43:06.831Z,5.93
2022-08-18T15:45:43.442Z,4.95
2022-08-18T15:48:25.042Z,6.20
2022-08-18T15:50:52.003Z,6.70
2022-08-18T15:53:30.120Z,5.20
2022-08-18T15:55:57.313Z,4.85
2022-08-18T15:58:26.796Z,6.35
2022-08-18T16:00:55.166Z,6.30
2022-08-18T16:03:21.894Z,6.38
2022-08-18T16:05:54.397Z,6.75
2022-08-18T16:08:23.808Z,5.38
2022-08-18T16:10:51.843Z,6.32
2022-08-18T16:13:19.198Z,6.20
2022-08-18T16:15:48.121Z,5.22
2022-08-18T16:18:16.302Z,5.78
2022-08-18T16:20:43.725Z,5.55
2022-08-18T16:23:14.170Z,7.03
2022-08-18T16:25:42.387Z,6.05
2022-08-18T16:28:09.793Z,6.80
2022-08-18T16:30:36.610Z,6.57
2022-08-18T16:33:06.369Z,4.65
2022-08-18T16:35:34.800Z,6.53
2022-08-18T16:38:04.800Z,5.55
2022-08-18T16:40:31.547Z,5.57
2022-08-18T16:43:00.514Z,5.80
2022-08-18T16:45:27.941Z,5.45
2022-08-18T16:47:55.622Z,6.22
2022-08-18T16:50:23.496Z,7.35
2022-08-18T16:52:50.155Z,6.90
2022-08-18T16:55:16.866Z,5.93
2022-08-18T16:58:02.289Z,8.10
2022-08-18T17:00:54.543Z,6.45
2022-08-18T17:03:41.823Z,5.90
2022-08-18T17:06:14.350Z,5.07
2022-08-18T17:08:42.307Z,6.22
2022-08-18T17:11:13.378Z,6.53
2022-08-18T17:13:41.644Z,6.70
2022-08-18T17:16:09.270Z,7.28
2022-08-18T17:18:36.886Z,6.82
2022-08-18T17:21:10.113Z,5.45
2022-08-18T17:23:38.793Z,5.00
2022-08-18T17:26:09.153Z,6.53
2022-08-18T17:28:50.620Z,5.78
2022-08-18T17:31:20.309Z,5.60
2022-08-18T17:33:46.977Z,5.60
2022-08-18T17:36:22.931Z,4.95
2022-08-18T17:38:53.214Z,5.65
2022-08-18T17:41:21.149Z,5.32
2022-08-18T17:43:48.102Z,6.03
2022-08-18T17:46:27.347Z,5.55
2022-08-18T17:48:57.143Z,5.35
2022-08-18T17:51:43.549Z,5.60
2022-08-18T17:54:32.246Z,7.25
2022-08-18T17:57:05.984Z,5.50
2022-08-18T17:59:45.564Z,6.28
2022-08-18T18:02:29.522Z,6.30
2022-08-18T18:04:59.134Z,5.97
2022-08-18T18:07:33.752Z,6.13
2022-08-18T18:10:08.817Z,5.97
2022-08-18T18:12:37.221Z,7.57
2022-08-18T18:15:13.305Z,6.82
2022-08-18T18:17:42.665Z,7.35
2022-08-18T18:20:37.982Z,8.02
2022-08-18T18:23:23.403Z,7.25
2022-08-18T18:25:50.448Z,8.70
2022-08-18T18:28:34.990Z,7.85
2022-08-18T18:31:26.796Z,7.28
2022-08-18T18:34:23.351Z,8.40
2022-08-18T18:36:56.009Z,8.77
2022-08-18T18:39:33.012Z,8.15
2022-08-18T18:42:17.423Z,10.23
2022-08-18T18:44:51.960Z,8.40
2022-08-18T18:47:42.492Z,8.88
2022-08-18T18:50:33.451Z,9.38
2022-08-18T18:53:29.899Z,9.60
2022-08-18T18:56:19.884Z,9.57
2022-08-18T18:59:03.433Z,9.32
2022-08-18T19:01:49.897Z,9.80
2022-08-18T19:04:28.829Z,10.80
2022-08-18T19:07:10.837Z,9.57
2022-08-18T19:09:50.305Z,8.80
2022-08-18T19:12:34.375Z,11.23
2022-08-18T19:15:14.597Z,10.98
2022-08-18T19:17:51.014Z,10.98
2022-08-18T19:20:20.929Z,9.02
2022-08-18T19:22:51.438Z,9.63
2022-08-18T19:25:25.907Z,10.65
2022-08-18T19:28:06.218Z,10.23
2022-08-18T19:30:36.926Z,7.57
2022-08-18T19:33:05.662Z,9.80
2022-08-18T19:36:00.375Z,8.98
2022-08-18T19:38:34.453Z,10.98
2022-08-18T19:41:10.915Z,12.73
2022-08-18T19:44:09.543Z,9.45
2022-08-18T19:46:57.161Z,9.93
2022-08-18T19:50:09.006Z,8.57
2022-08-18T19:52:50.731Z,10.23
2022-08-18T19:55:38.597Z,9.85
2022-08-18T19:58:23.711Z,10.65
2022-08-18T20:01:04.474Z,8.98
2022-08-18T20:03:47.406Z,8.80
2022-08-18T20:06:52.610Z,8.93
2022-08-18T20:09:25.425Z,8.77
2022-08-18T20:11:52.343Z,10.00
2022-08-18T20:14:20.626Z,9.50
2022-08-18T20:17:08.895Z,9.80
2022-08-18T20:19:47.652Z,8.85
2022-08-18T20:22:22.077Z,8.95
2022-08-18T20:24:59.470Z,9.10
2022-08-18T20:27:32.798Z,7.97
2022-08-18T20:30:17.391Z,8.55
2022-08-18T20:32:44.062Z,9.30
2022-08-18T20:35:24.426Z,7.80
2022-08-18T20:37:51.490Z,8.98
2022-08-18T20:40:44.617Z,10.02
2022-08-18T20:43:33.437Z,8.82
2022-08-18T20:46:40.234Z,9.85
2022-08-18T20:49:24.690Z,8.55
2022-08-18T20:52:04.201Z,8.00
2022-08-18T20:54:58.055Z,10.07
2022-08-18T20:57:29.033Z,9.30
2022-08-18T21:00:04.601Z,9.38
2022-08-18T21:02:41.137Z,8.23
2022-08-18T21:05:10.373Z,8.10
2022-08-18T21:08:13.111Z,7.38
2022-08-18T21:11:01.790Z,8.50
2022-08-18T21:13:28.531Z,7.68
2022-08-18T21:15:56.047Z,7.03
2022-08-18T21:18:24.039Z,8.07
2022-08-18T21:20:53.153Z,8.27
2022-08-18T21:23:33.543Z,7.38
2022-08-18T21:26:12.346Z,7.35
2022-08-18T21:28:42.119Z,10.80
2022-08-18T21:31:28.937Z,7.70
2022-08-18T21:34:28.777Z,8.82
2022-08-18T21:36:57.950Z,8.35
2022-08-18T21:39:25.409Z,8.07
2022-08-18T21:41:55.416Z,6.82
2022-08-18T21:44:29.996Z,7.88
2022-08-18T21:47:26.447Z,6.70
2022-08-18T21:50:15.263Z,7.07
2022-08-18T21:52:53.560Z,7.13
2022-08-18T21:55:24.085Z,7.03
2022-08-18T21:58:18.003Z,7.78
2022-08-18T22:01:10.746Z,7.13
2022-08-18T22:03:59.637Z,7.30
2022-08-18T22:06:40.389Z,6.93
2022-08-18T22:09:28.351Z,7.68
2022-08-18T22:12:44.826Z,7.05
2022-08-18T22:15:22.774Z,6.85
2022-08-18T22:17:51.772Z,8.15
2022-08-18T22:20:46.893Z,8.77
2022-08-18T22:23:31.924Z,6.80
2022-08-18T22:26:09.203Z,6.75
2022-08-18T22:28:45.359Z,7.32
2022-08-18T22:31:14.279Z,8.38
2022-08-18T22:33:42.342Z,6.97
2022-08-18T22:36:10.213Z,7.43
2022-08-18T22:38:36.863Z,8.20
2022-08-18T22:41:03.532Z,7.25
2022-08-18T22:43:30.152Z,8.30
2022-08-18T22:45:56.786Z,7.68
2022-08-18T22:48:23.430Z,6.53
2022-08-18T22:50:50.132Z,8.20
2022-08-18T22:53:18.069Z,8.23
2022-08-18T22:55:45.934Z,7.68
2022-08-18T22:58:13.044Z,7.65
2022-08-18T23:00:43.575Z,7.18
2022-08-18T23:03:10.427Z,7.07
2022-08-18T23:05:37.190Z,6.47
2022-08-18T23:08:04.085Z,7.70
2022-08-18T23:10:31.097Z,8.75
2022-08-18T23:13:02.198Z,7.80
2022-08-18T23:15:47.506Z,8.68
2022-08-18T23:18:19.782Z,7.50
2022-08-18T23:23:16.366Z,8.13
2022-08-18T23:25:43.423Z,7.68
2022-08-18T23:28:10.978Z,8.52
2022-08-18T23:30:39.958Z,8.18
2022-08-18T23:33:10.413Z,9.48
2022-08-18T23:35:38.437Z,9.80
2022-08-18T23:38:07.906Z,9.75
2022-08-18T23:40:38.976Z,10.25
2022-08-18T23:43:06.819Z,8.75
2022-08-18T23:45:38.616Z,9.18
2022-08-18T23:48:06.877Z,8.05
2022-08-18T23:50:34.949Z,8.02
2022-08-18T23:53:04.803Z,8.65
2022-08-18T23:55:33.630Z,8.85
2022-08-18T23:58:00.583Z,8.88
